Date,TemperatureHighF,TemperatureAvgF,TemperatureLowF,DewpointHighF,DewpointAvgF,DewpointLowF,HumidityHigh,HumidityAvg,HumidityLow,PressureMaxIn,PressureMinIn,WindSpeedMaxMPH,WindSpeedAvgMPH,GustSpeedMaxMPH,PrecipitationSumIn
2013-2-1,17.0,13.0,7.0,13.0,5.0,0.0,88,70,52,0.00,40.00,15,12,30,0.05
2013-2-2,16.0,10.1,4.0,13.0,5.2,-1.0,90,80,64,0.00,40.00,10,7,22,0.00
2013-2-3,25.0,16.7,11.0,21.0,13.8,6.0,90,87,76,0.00,40.00,13,6,27,0.00
2013-2-4,22.0,15.1,11.0,16.0,8.4,2.0,92,75,56,0.00,40.00,14,8,26,0.00
2013-2-5,24.0,21.1,18.0,23.0,18.6,15.0,96,90,81,0.00,40.00,8,4,18,0.00
2013-2-6,33.0,22.9,19.0,21.0,14.0,7.0,91,70,44,0.00,40.00,11,8,21,0.15
2013-2-7,31.0,22.0,15.0,18.0,11.8,6.0,74,64,52,0.00,40.00,11,7,20,0.01
2013-2-8,31.0,26.0,15.0,31.0,24.4,12.0,99,93,67,0.00,40.00,15,10,27,0.01
2013-2-9,27.0,18.0,12.0,14.0,10.0,7.0,87,71,50,0.00,40.00,17,12,30,0.03
2013-2-10,35.0,25.5,15.0,15.0,12.0,8.0,77,58,38,0.00,40.00,12,8,19,0.01
2013-2-11,42.0,33.1,27.0,40.0,27.1,14.0,99,80,50,0.00,40.00,19,11,39,0.09
2013-2-12,31.0,27.8,24.0,22.0,19.6,17.0,79,71,63,0.00,40.00,20,12,37,0.02
2013-2-13,37.0,27.8,22.0,29.0,22.2,18.0,98,80,55,0.00,40.00,7,4,13,0.00
2013-2-14,34.0,29.2,22.0,29.0,24.9,20.0,98,85,70,0.00,40.00,10,7,19,0.07
2013-2-15,37.0,31.9,25.0,31.0,24.3,18.0,97,74,54,0.00,40.00,10,8,23,0.01
2013-2-16,29.0,22.4,17.0,18.0,9.6,2.0,86,60,35,0.00,40.00,10,7,19,0.01
2013-2-17,19.0,13.6,9.0,8.0,2.8,-4.0,83,63,38,0.00,40.00,17,12,33,0.00
2013-2-18,33.0,19.6,8.0,9.0,5.1,2.0,82,57,27,0.00,40.00,13,9,29,0.00
2013-2-19,32.0,26.8,19.0,32.0,20.1,9.0,99,78,45,0.00,40.00,18,12,32,0.01
2013-2-20,19.0,14.5,11.0,14.0,7.5,5.0,82,73,58,0.00,40.00,15,12,31,0.01
2013-2-21,26.0,17.1,13.0,12.0,9.3,7.0,84,71,52,0.00,40.00,14,11,29,0.02
2013-2-22,25.0,19.1,13.0,22.0,16.2,10.0,95,88,68,0.00,40.00,12,8,23,0.01
2013-2-23,32.0,27.6,23.0,32.0,26.7,21.0,99,97,92,0.00,40.00,10,6,18,0.04
2013-2-24,31.0,26.3,22.0,31.0,21.2,14.0,99,81,58,0.00,40.00,12,8,22,0.01
2013-2-25,42.0,29.4,21.0,21.0,17.7,14.0,89,64,37,0.00,40.00,11,6,19,0.00
2013-2-26,34.0,28.1,24.0,29.0,22.8,18.0,98,81,64,0.00,40.00,11,7,26,0.00
2013-2-27,36.0,32.4,29.0,35.0,32.0,29.0,99,98,97,0.00,40.00,11,8,20,0.24
2013-2-28,33.0,29.9,27.0,32.0,27.9,25.0,99,92,83,0.00,40.00,10,7,18,0.17